sensor_id;sensor_type;location;lat;lon;timestamp;pressure;altitude;pressure_sealevel;temperature;humidity
19884;BME280;10104;50.732;10.174;2023-05-31T00:01:31;98617.91;;;13.71;59.20
19884;BME280;10104;50.732;10.174;2023-05-31T00:03:53;98617.91;;;13.71;58.90
19884;BME280;10104;50.732;10.174;2023-05-31T00:06:14;98618.78;;;13.35;62.30
19884;BME280;10104;50.732;10.174;2023-05-31T00:08:36;98613.09;;;13.39;61.42
19884;BME280;10104;50.732;10.174;2023-05-31T00:10:58;98613.88;;;13.18;62.25
19884;BME280;10104;50.732;10.174;2023-05-31T00:13:19;98624.06;;;13.14;61.50
19884;BME280;10104;50.732;10.174;2023-05-31T00:15:41;98618.91;;;12.98;63.09
19884;BME280;10104;50.732;10.174;2023-05-31T00:18:02;98616.16;;;13.06;61.41
19884;BME280;10104;50.732;10.174;2023-05-31T00:20:24;98615.75;;;13.09;61.00
19884;BME280;10104;50.732;10.174;2023-05-31T00:22:46;98618.63;;;13.08;60.34
19884;BME280;10104;50.732;10.174;2023-05-31T00:25:07;98624.47;;;13.03;60.93
19884;BME280;10104;50.732;10.174;2023-05-31T00:27:29;98622.03;;;12.87;62.26
19884;BME280;10104;50.732;10.174;2023-05-31T00:29:50;98624.41;;;12.96;61.42
19884;BME280;10104;50.732;10.174;2023-05-31T00:32:12;98625.22;;;12.97;60.67
19884;BME280;10104;50.732;10.174;2023-05-31T00:34:33;98621.66;;;12.90;61.05
19884;BME280;10104;50.732;10.174;2023-05-31T00:36:55;98623.22;;;12.99;60.78
19884;BME280;10104;50.732;10.174;2023-05-31T00:39:16;98624.22;;;12.98;60.56
19884;BME280;10104;50.732;10.174;2023-05-31T00:41:38;98621.66;;;12.90;60.67
19884;BME280;10104;50.732;10.174;2023-05-31T00:43:59;98615.72;;;12.73;61.73
19884;BME280;10104;50.732;10.174;2023-05-31T00:46:32;98621.94;;;12.80;60.56
19884;BME280;10104;50.732;10.174;2023-05-31T00:48:54;98620.75;;;12.83;61.03
19884;BME280;10104;50.732;10.174;2023-05-31T00:51:17;98617.25;;;12.53;62.38
19884;BME280;10104;50.732;10.174;2023-05-31T00:53:39;98624.56;;;12.36;62.87
19884;BME280;10104;50.732;10.174;2023-05-31T00:56:01;98627.78;;;12.32;63.12
19884;BME280;10104;50.732;10.174;2023-05-31T00:58:24;98629.06;;;12.36;62.21
19884;BME280;10104;50.732;10.174;2023-05-31T01:00:45;98631.91;;;12.34;61.76
19884;BME280;10104;50.732;10.174;2023-05-31T01:03:07;98632.25;;;12.31;62.53
19884;BME280;10104;50.732;10.174;2023-05-31T01:05:30;98624.38;;;12.23;62.66
19884;BME280;10104;50.732;10.174;2023-05-31T01:07:52;98626.41;;;12.21;63.00
19884;BME280;10104;50.732;10.174;2023-05-31T01:10:14;98627.69;;;12.25;62.30
19884;BME280;10104;50.732;10.174;2023-05-31T01:15:23;98620.75;;;12.01;63.45
19884;BME280;10104;50.732;10.174;2023-05-31T01:20:34;98609.75;;;11.90;63.60
19884;BME280;10104;50.732;10.174;2023-05-31T01:23:04;98606.66;;;12.01;62.76
19884;BME280;10104;50.732;10.174;2023-05-31T01:28:05;98614.84;;;11.68;64.41
19884;BME280;10104;50.732;10.174;2023-05-31T01:30:28;98613.69;;;11.71;63.72
19884;BME280;10104;50.732;10.174;2023-05-31T01:32:51;98611.19;;;11.78;62.99
19884;BME280;10104;50.732;10.174;2023-05-31T01:35:13;98609.00;;;11.73;63.38
19884;BME280;10104;50.732;10.174;2023-05-31T01:37:35;98605.25;;;11.45;65.50
19884;BME280;10104;50.732;10.174;2023-05-31T01:39:56;98609.53;;;11.23;66.13
19884;BME280;10104;50.732;10.174;2023-05-31T01:42:20;98619.03;;;11.40;65.06
19884;BME280;10104;50.732;10.174;2023-05-31T01:44:43;98617.84;;;11.43;64.06
19884;BME280;10104;50.732;10.174;2023-05-31T01:47:06;98610.38;;;11.46;63.25
19884;BME280;10104;50.732;10.174;2023-05-31T01:49:29;98614.97;;;11.52;62.76
19884;BME280;10104;50.732;10.174;2023-05-31T01:51:51;98611.78;;;11.57;63.01
19884;BME280;10104;50.732;10.174;2023-05-31T01:54:13;98614.97;;;11.52;63.69
19884;BME280;10104;50.732;10.174;2023-05-31T01:56:35;98614.28;;;11.58;62.74
19884;BME280;10104;50.732;10.174;2023-05-31T01:58:58;98618.97;;;11.48;64.59
19884;BME280;10104;50.732;10.174;2023-05-31T02:01:20;98613.47;;;11.27;65.69
19884;BME280;10104;50.732;10.174;2023-05-31T02:03:42;98620.84;;;11.09;66.38
19884;BME280;10104;50.732;10.174;2023-05-31T02:06:04;98620.16;;;11.15;65.85
19884;BME280;10104;50.732;10.174;2023-05-31T02:08:26;98618.06;;;11.02;66.83
19884;BME280;10104;50.732;10.174;2023-05-31T02:10:48;98614.63;;;10.93;66.36
19884;BME280;10104;50.732;10.174;2023-05-31T02:13:09;98621.97;;;10.83;67.21
19884;BME280;10104;50.732;10.174;2023-05-31T02:15:31;98622.41;;;10.95;65.79
19884;BME280;10104;50.732;10.174;2023-05-31T02:17:53;98619.75;;;10.95;65.82
19884;BME280;10104;50.732;10.174;2023-05-31T02:20:15;98607.31;;;11.04;64.96
19884;BME280;10104;50.732;10.174;2023-05-31T02:22:36;98619.38;;;11.06;64.56
19884;BME280;10104;50.732;10.174;2023-05-31T02:24:58;98611.25;;;11.08;64.22
19884;BME280;10104;50.732;10.174;2023-05-31T02:27:19;98617.69;;;11.13;64.35
19884;BME280;10104;50.732;10.174;2023-05-31T02:29:41;98623.69;;;11.07;64.52
19884;BME280;10104;50.732;10.174;2023-05-31T02:32:06;98614.16;;;10.90;66.45
19884;BME280;10104;50.732;10.174;2023-05-31T02:34:27;98622.94;;;10.82;66.46
19884;BME280;10104;50.732;10.174;2023-05-31T02:36:49;98619.84;;;10.79;66.17
19884;BME280;10104;50.732;10.174;2023-05-31T02:39:11;98617.97;;;10.87;64.91
19884;BME280;10104;50.732;10.174;2023-05-31T02:41:32;98614.69;;;10.85;64.53
19884;BME280;10104;50.732;10.174;2023-05-31T02:43:53;98617.31;;;10.85;64.29
19884;BME280;10104;50.732;10.174;2023-05-31T02:46:15;98616.28;;;10.94;64.16
19884;BME280;10104;50.732;10.174;2023-05-31T02:48:37;98610.91;;;10.80;64.56
19884;BME280;10104;50.732;10.174;2023-05-31T02:50:59;98621.44;;;10.88;64.52
19884;BME280;10104;50.732;10.174;2023-05-31T02:53:21;98616.44;;;10.54;67.37
19884;BME280;10104;50.732;10.174;2023-05-31T02:55:43;98626.84;;;10.55;65.99
19884;BME280;10104;50.732;10.174;2023-05-31T02:58:05;98620.22;;;10.60;65.30
19884;BME280;10104;50.732;10.174;2023-05-31T03:00:28;98617.56;;;10.60;64.60
19884;BME280;10104;50.732;10.174;2023-05-31T03:02:50;98619.38;;;10.67;64.57
19884;BME280;10104;50.732;10.174;2023-05-31T03:05:11;98616.91;;;10.66;64.41
19884;BME280;10104;50.732;10.174;2023-05-31T03:07:33;98615.28;;;10.48;66.28
19884;BME280;10104;50.732;10.174;2023-05-31T03:09:54;98617.41;;;10.61;65.84
19884;BME280;10104;50.732;10.174;2023-05-31T03:12:16;98621.94;;;10.36;67.59
19884;BME280;10104;50.732;10.174;2023-05-31T03:14:38;98619.47;;;10.35;66.79
19884;BME280;10104;50.732;10.174;2023-05-31T03:16:59;98621.31;;;10.18;67.46
19884;BME280;10104;50.732;10.174;2023-05-31T03:19:22;98622.75;;;10.12;67.63
19884;BME280;10104;50.732;10.174;2023-05-31T03:21:43;98622.59;;;10.14;66.78
19884;BME280;10104;50.732;10.174;2023-05-31T03:24:05;98622.63;;;10.30;66.15
19884;BME280;10104;50.732;10.174;2023-05-31T03:26:26;98628.72;;;10.39;65.81
19884;BME280;10104;50.732;10.174;2023-05-31T03:28:48;98632.03;;;10.41;65.23
19884;BME280;10104;50.732;10.174;2023-05-31T03:31:09;98627.41;;;10.35;65.60
19884;BME280;10104;50.732;10.174;2023-05-31T03:33:31;98635.50;;;10.41;66.10
19884;BME280;10104;50.732;10.174;2023-05-31T03:35:53;98630.50;;;10.54;65.75
19884;BME280;10104;50.732;10.174;2023-05-31T03:38:14;98629.03;;;10.44;66.26
19884;BME280;10104;50.732;10.174;2023-05-31T03:40:36;98635.00;;;10.38;66.21
19884;BME280;10104;50.732;10.174;2023-05-31T03:42:57;98629.53;;;10.15;68.23
19884;BME280;10104;50.732;10.174;2023-05-31T03:45:19;98631.56;;;10.29;66.89
19884;BME280;10104;50.732;10.174;2023-05-31T03:47:41;98632.06;;;10.17;68.09
19884;BME280;10104;50.732;10.174;2023-05-31T03:50:04;98640.47;;;10.04;69.13
19884;BME280;10104;50.732;10.174;2023-05-31T03:52:26;98637.31;;;10.08;68.37
19884;BME280;10104;50.732;10.174;2023-05-31T03:54:47;98636.47;;;10.00;69.22
19884;BME280;10104;50.732;10.174;2023-05-31T03:57:09;98634.00;;;10.06;68.20
19884;BME280;10104;50.732;10.174;2023-05-31T03:59:30;98640.78;;;10.09;69.23
19884;BME280;10104;50.732;10.174;2023-05-31T04:01:52;98632.69;;;10.02;69.35
19884;BME280;10104;50.732;10.174;2023-05-31T04:04:13;98642.78;;;10.15;67.97
19884;BME280;10104;50.732;10.174;2023-05-31T04:06:35;98637.47;;;10.07;70.21
19884;BME280;10104;50.732;10.174;2023-05-31T04:08:57;98638.66;;;10.04;70.05
19884;BME280;10104;50.732;10.174;2023-05-31T04:11:18;98631.22;;;10.24;68.91
19884;BME280;10104;50.732;10.174;2023-05-31T04:13:40;98629.88;;;10.28;70.33
19884;BME280;10104;50.732;10.174;2023-05-31T04:16:01;98635.34;;;10.43;69.06
19884;BME280;10104;50.732;10.174;2023-05-31T04:18:24;98638.59;;;10.61;69.88
19884;BME280;10104;50.732;10.174;2023-05-31T04:20:45;98644.88;;;10.60;69.31
19884;BME280;10104;50.732;10.174;2023-05-31T04:23:07;98636.97;;;10.44;74.44
19884;BME280;10104;50.732;10.174;2023-05-31T04:25:28;98639.75;;;10.50;73.63
19884;BME280;10104;50.732;10.174;2023-05-31T04:27:50;98639.06;;;10.65;71.84
19884;BME280;10104;50.732;10.174;2023-05-31T04:30:12;98640.97;;;10.32;77.22
19884;BME280;10104;50.732;10.174;2023-05-31T04:32:34;98651.84;;;10.45;75.03
19884;BME280;10104;50.732;10.174;2023-05-31T04:34:55;98648.22;;;10.46;75.68
19884;BME280;10104;50.732;10.174;2023-05-31T04:37:19;98645.19;;;10.65;73.39
19884;BME280;10104;50.732;10.174;2023-05-31T04:39:40;98646.72;;;10.51;76.91
19884;BME280;10104;50.732;10.174;2023-05-31T04:42:02;98650.47;;;10.73;74.34
19884;BME280;10104;50.732;10.174;2023-05-31T04:44:24;98648.09;;;10.86;73.00
19884;BME280;10104;50.732;10.174;2023-05-31T04:46:46;98653.88;;;10.98;72.25
19884;BME280;10104;50.732;10.174;2023-05-31T04:49:08;98640.94;;;11.03;71.82
19884;BME280;10104;50.732;10.174;2023-05-31T04:51:31;98648.66;;;11.13;71.08
19884;BME280;10104;50.732;10.174;2023-05-31T04:53:53;98647.34;;;11.17;70.68
19884;BME280;10104;50.732;10.174;2023-05-31T04:56:14;98634.97;;;11.32;70.48
19884;BME280;10104;50.732;10.174;2023-05-31T04:58:36;98638.13;;;11.35;70.31
19884;BME280;10104;50.732;10.174;2023-05-31T05:00:57;98641.00;;;11.49;70.37
19884;BME280;10104;50.732;10.174;2023-05-31T05:03:22;98644.78;;;11.54;70.34
19884;BME280;10104;50.732;10.174;2023-05-31T05:05:44;98646.56;;;11.62;69.68
19884;BME280;10104;50.732;10.174;2023-05-31T05:08:05;98648.66;;;11.74;70.12
19884;BME280;10104;50.732;10.174;2023-05-31T05:10:27;98650.59;;;11.81;70.14
19884;BME280;10104;50.732;10.174;2023-05-31T05:12:48;98644.41;;;11.88;70.28
19884;BME280;10104;50.732;10.174;2023-05-31T05:15:10;98650.56;;;11.89;72.01
19884;BME280;10104;50.732;10.174;2023-05-31T05:17:31;98646.66;;;11.99;70.24
19884;BME280;10104;50.732;10.174;2023-05-31T05:19:53;98642.22;;;12.14;71.28
19884;BME280;10104;50.732;10.174;2023-05-31T05:22:14;98641.69;;;12.19;70.73
19884;BME280;10104;50.732;10.174;2023-05-31T05:24:36;98646.59;;;12.22;70.68
19884;BME280;10104;50.732;10.174;2023-05-31T05:26:57;98646.09;;;12.27;70.50
19884;BME280;10104;50.732;10.174;2023-05-31T05:29:20;98646.00;;;12.35;70.64
19884;BME280;10104;50.732;10.174;2023-05-31T05:31:41;98649.06;;;12.46;70.62
19884;BME280;10104;50.732;10.174;2023-05-31T05:34:03;98650.63;;;12.55;70.78
19884;BME280;10104;50.732;10.174;2023-05-31T05:36:24;98648.16;;;12.69;71.11
19884;BME280;10104;50.732;10.174;2023-05-31T05:38:46;98642.94;;;12.75;70.82
19884;BME280;10104;50.732;10.174;2023-05-31T05:41:08;98650.09;;;12.75;71.11
19884;BME280;10104;50.732;10.174;2023-05-31T05:43:33;98646.69;;;12.66;72.54
19884;BME280;10104;50.732;10.174;2023-05-31T05:45:54;98643.94;;;12.74;72.01
19884;BME280;10104;50.732;10.174;2023-05-31T05:48:16;98643.13;;;12.88;71.06
19884;BME280;10104;50.732;10.174;2023-05-31T05:50:37;98656.59;;;13.02;71.28
19884;BME280;10104;50.732;10.174;2023-05-31T05:52:59;98653.56;;;13.05;72.70
19884;BME280;10104;50.732;10.174;2023-05-31T05:55:20;98649.72;;;13.07;72.67
19884;BME280;10104;50.732;10.174;2023-05-31T05:57:42;98653.94;;;13.16;72.25
19884;BME280;10104;50.732;10.174;2023-05-31T06:00:04;98651.34;;;13.23;73.24
19884;BME280;10104;50.732;10.174;2023-05-31T06:02:37;98656.03;;;13.21;74.63
19884;BME280;10104;50.732;10.174;2023-05-31T06:04:59;98652.44;;;13.28;73.79
19884;BME280;10104;50.732;10.174;2023-05-31T06:07:21;98655.00;;;13.36;73.48
19884;BME280;10104;50.732;10.174;2023-05-31T06:09:43;98652.50;;;13.50;73.53
19884;BME280;10104;50.732;10.174;2023-05-31T06:12:05;98658.09;;;13.55;73.82
19884;BME280;10104;50.732;10.174;2023-05-31T06:14:28;98652.31;;;13.51;76.11
19884;BME280;10104;50.732;10.174;2023-05-31T06:16:49;98649.09;;;13.56;76.21
19884;BME280;10104;50.732;10.174;2023-05-31T06:19:11;98654.47;;;13.62;76.69
19884;BME280;10104;50.732;10.174;2023-05-31T06:21:33;98655.25;;;13.77;74.73
19884;BME280;10104;50.732;10.174;2023-05-31T06:23:54;98650.81;;;14.06;73.26
19884;BME280;10104;50.732;10.174;2023-05-31T06:26:16;98643.59;;;14.28;71.86
19884;BME280;10104;50.732;10.174;2023-05-31T06:28:38;98648.13;;;14.48;71.79
19884;BME280;10104;50.732;10.174;2023-05-31T06:30:59;98647.63;;;14.66;70.96
19884;BME280;10104;50.732;10.174;2023-05-31T06:33:22;98646.66;;;14.74;70.39
19884;BME280;10104;50.732;10.174;2023-05-31T06:35:43;98640.31;;;14.81;71.33
19884;BME280;10104;50.732;10.174;2023-05-31T06:38:06;98649.84;;;14.97;70.39
19884;BME280;10104;50.732;10.174;2023-05-31T06:40:27;98651.78;;;15.16;70.78
19884;BME280;10104;50.732;10.174;2023-05-31T06:42:49;98654.03;;;15.19;70.18
19884;BME280;10104;50.732;10.174;2023-05-31T06:45:10;98647.72;;;15.27;70.05
19884;BME280;10104;50.732;10.174;2023-05-31T06:47:32;98642.41;;;15.33;70.91
19884;BME280;10104;50.732;10.174;2023-05-31T06:49:54;98641.63;;;15.46;70.30
19884;BME280;10104;50.732;10.174;2023-05-31T06:52:16;98643.94;;;15.56;71.01
19884;BME280;10104;50.732;10.174;2023-05-31T06:54:37;98638.03;;;15.67;70.46
19884;BME280;10104;50.732;10.174;2023-05-31T06:56:59;98639.50;;;15.83;71.37
19884;BME280;10104;50.732;10.174;2023-05-31T06:59:20;98646.09;;;16.00;70.06
19884;BME280;10104;50.732;10.174;2023-05-31T07:01:42;98639.34;;;16.10;70.95
19884;BME280;10104;50.732;10.174;2023-05-31T07:04:03;98627.84;;;16.23;69.34
19884;BME280;10104;50.732;10.174;2023-05-31T07:06:25;98636.44;;;16.45;69.49
19884;BME280;10104;50.732;10.174;2023-05-31T07:08:47;98631.28;;;16.50;69.64
19884;BME280;10104;50.732;10.174;2023-05-31T07:11:08;98625.75;;;16.65;68.39
19884;BME280;10104;50.732;10.174;2023-05-31T07:13:30;98621.97;;;16.92;66.93
19884;BME280;10104;50.732;10.174;2023-05-31T07:15:51;98625.66;;;16.97;67.26
19884;BME280;10104;50.732;10.174;2023-05-31T07:18:13;98622.75;;;17.06;67.90
19884;BME280;10104;50.732;10.174;2023-05-31T07:20:35;98620.25;;;17.11;68.26
19884;BME280;10104;50.732;10.174;2023-05-31T07:22:57;98618.19;;;17.19;67.57
19884;BME280;10104;50.732;10.174;2023-05-31T07:25:18;98614.41;;;17.33;65.33
19884;BME280;10104;50.732;10.174;2023-05-31T07:27:40;98615.72;;;17.62;64.21
19884;BME280;10104;50.732;10.174;2023-05-31T07:30:02;98618.00;;;17.59;67.48
19884;BME280;10104;50.732;10.174;2023-05-31T07:32:24;98611.97;;;17.70;61.42
19884;BME280;10104;50.732;10.174;2023-05-31T07:34:45;98606.41;;;17.96;61.61
19884;BME280;10104;50.732;10.174;2023-05-31T07:37:23;98600.91;;;18.16;56.17
19884;BME280;10104;50.732;10.174;2023-05-31T07:39:45;98604.19;;;18.18;53.14
19884;BME280;10104;50.732;10.174;2023-05-31T07:42:07;98597.38;;;18.40;51.66
19884;BME280;10104;50.732;10.174;2023-05-31T07:44:28;98596.22;;;18.54;48.89
19884;BME280;10104;50.732;10.174;2023-05-31T07:46:50;98599.78;;;18.73;51.26
19884;BME280;10104;50.732;10.174;2023-05-31T07:49:11;98592.19;;;18.88;52.88
19884;BME280;10104;50.732;10.174;2023-05-31T07:51:33;98601.34;;;18.99;50.25
19884;BME280;10104;50.732;10.174;2023-05-31T07:53:55;98589.16;;;19.15;49.12
19884;BME280;10104;50.732;10.174;2023-05-31T07:56:16;98588.28;;;19.21;50.80
19884;BME280;10104;50.732;10.174;2023-05-31T07:58:38;98584.38;;;19.35;50.52
19884;BME280;10104;50.732;10.174;2023-05-31T08:00:59;98577.56;;;19.51;49.06
19884;BME280;10104;50.732;10.174;2023-05-31T08:03:22;98581.25;;;19.68;49.76
19884;BME280;10104;50.732;10.174;2023-05-31T08:05:43;98574.53;;;19.89;49.04
19884;BME280;10104;50.732;10.174;2023-05-31T08:08:06;98576.03;;;19.85;48.18
19884;BME280;10104;50.732;10.174;2023-05-31T08:10:28;98587.41;;;19.98;46.97
19884;BME280;10104;50.732;10.174;2023-05-31T08:12:51;98576.78;;;20.15;46.80
19884;BME280;10104;50.732;10.174;2023-05-31T08:15:13;98581.84;;;20.23;46.90
19884;BME280;10104;50.732;10.174;2023-05-31T08:17:34;98580.44;;;20.32;46.33
19884;BME280;10104;50.732;10.174;2023-05-31T08:19:56;98575.06;;;20.44;45.08
19884;BME280;10104;50.732;10.174;2023-05-31T08:22:18;98569.00;;;20.60;45.83
19884;BME280;10104;50.732;10.174;2023-05-31T08:24:39;98555.16;;;20.68;47.44
19884;BME280;10104;50.732;10.174;2023-05-31T08:27:01;98561.72;;;20.72;45.90
19884;BME280;10104;50.732;10.174;2023-05-31T08:29:23;98554.31;;;20.91;43.41
19884;BME280;10104;50.732;10.174;2023-05-31T08:31:44;98563.84;;;21.10;44.75
19884;BME280;10104;50.732;10.174;2023-05-31T08:34:06;98570.88;;;21.23;43.33
19884;BME280;10104;50.732;10.174;2023-05-31T08:36:27;98562.66;;;21.18;42.80
19884;BME280;10104;50.732;10.174;2023-05-31T08:38:49;98560.75;;;21.30;41.48
19884;BME280;10104;50.732;10.174;2023-05-31T08:41:11;98565.19;;;21.36;40.90
19884;BME280;10104;50.732;10.174;2023-05-31T08:43:32;98560.03;;;21.63;40.38
19884;BME280;10104;50.732;10.174;2023-05-31T08:45:54;98559.41;;;21.89;39.82
19884;BME280;10104;50.732;10.174;2023-05-31T08:50:56;98551.09;;;22.07;40.08
19884;BME280;10104;50.732;10.174;2023-05-31T08:53:20;98555.44;;;22.08;38.38
19884;BME280;10104;50.732;10.174;2023-05-31T08:55:45;98559.34;;;22.17;41.19
19884;BME280;10104;50.732;10.174;2023-05-31T08:58:09;98549.59;;;22.16;40.32
19884;BME280;10104;50.732;10.174;2023-05-31T09:00:32;98552.69;;;22.42;38.49
19884;BME280;10104;50.732;10.174;2023-05-31T09:02:56;98547.47;;;22.35;40.51
19884;BME280;10104;50.732;10.174;2023-05-31T09:05:18;98541.66;;;22.43;37.82
19884;BME280;10104;50.732;10.174;2023-05-31T09:07:39;98544.66;;;22.47;37.35
19884;BME280;10104;50.732;10.174;2023-05-31T09:10:01;98542.22;;;22.29;38.00
19884;BME280;10104;50.732;10.174;2023-05-31T09:12:24;98549.34;;;22.51;38.75
19884;BME280;10104;50.732;10.174;2023-05-31T09:14:46;98543.59;;;22.48;38.26
19884;BME280;10104;50.732;10.174;2023-05-31T09:17:07;98534.75;;;22.91;37.54
19884;BME280;10104;50.732;10.174;2023-05-31T09:19:30;98525.34;;;22.93;38.60
19884;BME280;10104;50.732;10.174;2023-05-31T09:21:52;98534.13;;;22.84;38.53
19884;BME280;10104;50.732;10.174;2023-05-31T09:24:14;98540.06;;;22.64;37.89
19884;BME280;10104;50.732;10.174;2023-05-31T09:29:11;98535.78;;;22.68;37.37
19884;BME280;10104;50.732;10.174;2023-05-31T09:31:33;98534.00;;;22.74;38.00
19884;BME280;10104;50.732;10.174;2023-05-31T09:33:54;98528.09;;;22.77;37.14
19884;BME280;10104;50.732;10.174;2023-05-31T09:36:24;98530.75;;;22.93;38.40
19884;BME280;10104;50.732;10.174;2023-05-31T09:38:46;98527.31;;;23.03;37.05
19884;BME280;10104;50.732;10.174;2023-05-31T09:41:20;98526.88;;;23.11;37.05
19884;BME280;10104;50.732;10.174;2023-05-31T09:43:43;98515.88;;;23.18;36.82
19884;BME280;10104;50.732;10.174;2023-05-31T09:46:11;98515.44;;;23.53;36.33
19884;BME280;10104;50.732;10.174;2023-05-31T09:48:32;98525.25;;;23.59;36.79
19884;BME280;10104;50.732;10.174;2023-05-31T09:50:54;98523.91;;;23.61;37.29
19884;BME280;10104;50.732;10.174;2023-05-31T09:53:19;98520.50;;;23.44;35.59
19884;BME280;10104;50.732;10.174;2023-05-31T09:55:40;98516.28;;;23.53;37.00
19884;BME280;10104;50.732;10.174;2023-05-31T09:58:02;98513.19;;;23.71;36.75
19884;BME280;10104;50.732;10.174;2023-05-31T10:00:25;98513.81;;;23.84;36.20
19884;BME280;10104;50.732;10.174;2023-05-31T10:02:48;98508.63;;;23.77;35.93
19884;BME280;10104;50.732;10.174;2023-05-31T10:05:14;98509.78;;;23.81;35.92
19884;BME280;10104;50.732;10.174;2023-05-31T10:07:36;98508.38;;;23.78;36.44
19884;BME280;10104;50.732;10.174;2023-05-31T10:09:57;98502.75;;;23.85;36.26
19884;BME280;10104;50.732;10.174;2023-05-31T10:12:21;98503.53;;;23.81;37.25
19884;BME280;10104;50.732;10.174;2023-05-31T10:14:49;98511.22;;;23.94;36.66
19884;BME280;10104;50.732;10.174;2023-05-31T10:17:17;98513.22;;;24.13;36.11
19884;BME280;10104;50.732;10.174;2023-05-31T10:19:45;98526.88;;;24.24;37.34
19884;BME280;10104;50.732;10.174;2023-05-31T10:22:09;98515.66;;;24.47;36.16
19884;BME280;10104;50.732;10.174;2023-05-31T10:24:47;98515.63;;;24.42;37.83
19884;BME280;10104;50.732;10.174;2023-05-31T10:27:24;98505.44;;;24.59;35.21
19884;BME280;10104;50.732;10.174;2023-05-31T10:29:55;98508.63;;;25.03;35.51
19884;BME280;10104;50.732;10.174;2023-05-31T10:32:24;98508.31;;;24.89;35.94
19884;BME280;10104;50.732;10.174;2023-05-31T10:34:47;98503.19;;;24.93;34.80
19884;BME280;10104;50.732;10.174;2023-05-31T10:37:09;98504.78;;;24.89;35.28
19884;BME280;10104;50.732;10.174;2023-05-31T10:42:21;98498.47;;;24.78;34.87
19884;BME280;10104;50.732;10.174;2023-05-31T10:44:58;98496.41;;;25.01;34.66
19884;BME280;10104;50.732;10.174;2023-05-31T10:47:24;98486.41;;;25.06;35.58
19884;BME280;10104;50.732;10.174;2023-05-31T10:49:48;98485.38;;;25.27;34.84
19884;BME280;10104;50.732;10.174;2023-05-31T10:52:10;98483.78;;;25.42;34.41
19884;BME280;10104;50.732;10.174;2023-05-31T10:54:33;98471.03;;;25.42;34.45
19884;BME280;10104;50.732;10.174;2023-05-31T10:56:56;98476.19;;;25.49;34.19
19884;BME280;10104;50.732;10.174;2023-05-31T10:59:18;98477.59;;;25.61;34.91
19884;BME280;10104;50.732;10.174;2023-05-31T11:01:40;98471.91;;;25.73;34.14
19884;BME280;10104;50.732;10.174;2023-05-31T11:04:18;98469.41;;;25.87;33.76
19884;BME280;10104;50.732;10.174;2023-05-31T11:06:40;98462.63;;;25.94;33.71
19884;BME280;10104;50.732;10.174;2023-05-31T11:09:09;98465.63;;;25.98;34.50
19884;BME280;10104;50.732;10.174;2023-05-31T11:16:26;98465.50;;;26.58;34.90
19884;BME280;10104;50.732;10.174;2023-05-31T11:18:48;98464.13;;;26.61;34.38
19884;BME280;10104;50.732;10.174;2023-05-31T11:21:10;98459.69;;;26.80;34.33
19884;BME280;10104;50.732;10.174;2023-05-31T11:23:31;98454.94;;;27.11;33.41
19884;BME280;10104;50.732;10.174;2023-05-31T11:26:17;98453.56;;;27.53;31.84
19884;BME280;10104;50.732;10.174;2023-05-31T11:31:16;98452.66;;;27.96;32.69
19884;BME280;10104;50.732;10.174;2023-05-31T11:33:45;98458.13;;;28.25;31.89
19884;BME280;10104;50.732;10.174;2023-05-31T11:36:18;98453.75;;;28.72;31.33
19884;BME280;10104;50.732;10.174;2023-05-31T11:38:41;98450.72;;;29.16;29.72
19884;BME280;10104;50.732;10.174;2023-05-31T11:41:04;98453.13;;;29.92;29.23
19884;BME280;10104;50.732;10.174;2023-05-31T11:43:27;98452.06;;;30.62;28.69
19884;BME280;10104;50.732;10.174;2023-05-31T11:45:51;98440.88;;;31.13;28.90
19884;BME280;10104;50.732;10.174;2023-05-31T11:48:29;98443.00;;;31.74;27.26
19884;BME280;10104;50.732;10.174;2023-05-31T11:50:54;98439.22;;;32.45;26.65
19884;BME280;10104;50.732;10.174;2023-05-31T11:53:16;98440.53;;;33.39;26.56
19884;BME280;10104;50.732;10.174;2023-05-31T11:55:38;98442.31;;;34.33;25.59
19884;BME280;10104;50.732;10.174;2023-05-31T11:57:59;98437.84;;;34.87;25.18
19884;BME280;10104;50.732;10.174;2023-05-31T12:00:22;98432.66;;;35.36;24.84
19884;BME280;10104;50.732;10.174;2023-05-31T12:02:44;98424.84;;;35.92;23.72
19884;BME280;10104;50.732;10.174;2023-05-31T12:05:10;98429.19;;;35.93;22.89
19884;BME280;10104;50.732;10.174;2023-05-31T12:07:32;98418.47;;;36.24;23.22
19884;BME280;10104;50.732;10.174;2023-05-31T12:09:54;98414.34;;;36.42;22.31
19884;BME280;10104;50.732;10.174;2023-05-31T12:12:16;98411.50;;;37.99;22.52
19884;BME280;10104;50.732;10.174;2023-05-31T12:14:37;98413.59;;;38.18;20.61
19884;BME280;10104;50.732;10.174;2023-05-31T12:17:03;98406.69;;;37.96;21.49
19884;BME280;10104;50.732;10.174;2023-05-31T12:19:26;98418.28;;;37.86;21.78
19884;BME280;10104;50.732;10.174;2023-05-31T12:21:47;98407.00;;;38.07;21.15
19884;BME280;10104;50.732;10.174;2023-05-31T12:24:16;98405.59;;;38.79;20.82
19884;BME280;10104;50.732;10.174;2023-05-31T12:26:38;98388.94;;;39.49;21.11
19884;BME280;10104;50.732;10.174;2023-05-31T12:29:01;98379.75;;;40.10;20.01
19884;BME280;10104;50.732;10.174;2023-05-31T12:31:25;98385.41;;;39.94;20.51
19884;BME280;10104;50.732;10.174;2023-05-31T12:36:27;98381.53;;;41.60;18.98
19884;BME280;10104;50.732;10.174;2023-05-31T12:38:53;98379.28;;;41.39;18.50
19884;BME280;10104;50.732;10.174;2023-05-31T12:41:16;98380.81;;;42.55;17.93
19884;BME280;10104;50.732;10.174;2023-05-31T12:43:39;98384.84;;;43.26;18.20
19884;BME280;10104;50.732;10.174;2023-05-31T12:46:01;98382.19;;;43.79;16.60
19884;BME280;10104;50.732;10.174;2023-05-31T12:48:22;98375.81;;;43.79;16.07
19884;BME280;10104;50.732;10.174;2023-05-31T12:50:46;98368.31;;;44.29;16.51
19884;BME280;10104;50.732;10.174;2023-05-31T12:53:07;98363.00;;;44.88;15.58